x

Matinicus Rock, Me (mism1) Weather Station

4:00am - Mon 26th Sep 2016 All times are EDT. -4 hours from GMT.

  • Wind
    17mph, 18mph gusts
  • Air Temp 51°f
  • Sea Pressure 1020.4mb
  • Matinicus Rock, Me
  • Matinicus Rock, Me

More Historic Weather Station data

Upgrade to MSW Pro to gain access to the past 30 days of data for over 8000 Wavebouys and Weather Stations around the globe.

Join Pro

Comparision Forecast

View Surf forecast
   
Mon 09/26 4:00am 17 18 mph 1020.4mb 51f
3:00am 22 24 mph 1020.3mb 51f
2:00am 21 24 mph 1020.5mb 51f
1:00am 20 22 mph 1020.1mb 53f
12:00am 21 23 mph 1020.1mb 53f
Sun 09/25 11:00pm 20 21 mph 1020mb 54f
10:00pm 21 23 mph 1020mb 54f
9:00pm 22 25 mph 1019.7mb 55f
8:00pm 24 26 mph 1019.1mb 56f
7:00pm 23 25 mph 1018.2mb 56f
6:00pm 25 28 mph 1017.3mb 56f
5:00pm 23 25 mph 1016.7mb 57f
4:00pm 26 29 mph 1016.3mb 56f
3:00pm 26 31 mph 1016.2mb 56f
2:00pm 24 26 mph 1016.2mb 56f
1:00pm 9 11 mph 1016.8mb 55f
12:00pm 20 23 mph 1016.7mb 53f
11:00am 20 23 mph 1017.1mb 51f
10:00am 21 22 mph 1017.3mb 50f
9:00am 24 25 mph 1017.1mb 49f
8:00am 25 26 mph 1016.8mb 50f
7:00am 28 29 mph 1016.6mb 50f
6:00am 22 24 mph 1016.8mb 49f
5:00am 25 29 mph 1016.4mb 50f
4:00am 24 25 mph 1016.4mb 51f
3:00am 21 23 mph 1016.5mb 51f
2:00am 23 24 mph 1016.5mb 51f
1:00am 24 26 mph 1016.4mb 52f
12:00am 32 34 mph 1016.2mb 53f
Sat 09/24 11:00pm 24 26 mph 1016.3mb 55f
10:00pm 16 18 mph 1016.1mb 56f
9:00pm 16 17 mph 1015.8mb 58f
8:00pm 10 11 mph 1016.2mb 58f
7:00pm 17 18 mph 1015.7mb 58f
6:00pm 16 17 mph 1015.5mb 59f
5:00pm 10 11 mph 1015.5mb 58f
4:00pm 14
mph
1015.7mb 58f
3:00pm 20 22 mph 1015.9mb 58f
2:00pm 22 24 mph 1016.4mb 58f
1:00pm 17 20 mph 1017mb 57f
12:00pm 14 15 mph 1017.9mb 55f
11:00am 15 16 mph 1018.3mb 54f
10:00am 14 15 mph 1018.3mb 53f
9:00am 18 21 mph 1018.4mb 53f
8:00am 18 20 mph 1018.6mb 53f
7:00am 15 17 mph 1018.4mb 53f
6:00am 11 13 mph 1018.3mb 54f
5:00am 9 10 mph 1017.7mb 55f
4:00am 6 7 mph 1017.4mb 55f
3:00am 13 14 mph 1018.1mb 55f
2:00am 15 16 mph 1017.8mb 55f
1:00am 15 17 mph 1017.9mb 55f
12:00am 18 21 mph 1017.1mb 55f
Fri 09/23 11:00pm 17 18 mph 1017.4mb 55f
10:00pm 18 20 mph 1017.3mb 56f
9:00pm 18 22 mph 1017.4mb 56f
8:00pm 20 23 mph 1017mb 57f
7:00pm 21 23 mph 1016.5mb 57f
6:00pm 16 17 mph 1016.2mb 57f
5:00pm 21 24 mph 1015.5mb 57f
4:00pm 24 26 mph 1014.8mb 58f
3:00pm 24 26 mph 1014.5mb 58f
2:00pm 11 13 mph 1013.9mb 60f
1:00pm 13 14 mph 1013.8mb 61f
12:00pm 13 14 mph 1013.6mb 61f
11:00am 21 22 mph 1013.4mb 61f
10:00am 13 14 mph 1013.9mb 62f
9:00am 18 20 mph 1014.4mb 62f
8:00am 25 26 mph 1014.2mb 63f
7:00am 25 28 mph 1014.2mb 63f
6:00am 22 24 mph 1014.5mb 63f
5:00am 25 28 mph 1014.5mb 63f
4:00am 23 24 mph 1015.2mb 63f
3:00am 18 20 mph 1016.1mb 63f
2:00am 22
mph
1016.2mb 62f
1:00am 20
mph
1016.8mb 62f
12:00am 21 22 mph 1017.3mb 62f
Thu 09/22 11:00pm 18 20 mph 1018mb 62f
10:00pm 15 16 mph 1018.5mb 61f
9:00pm 13
mph
1018.7mb 62f
8:00pm 14
mph
1019.1mb 63f
7:00pm 14
mph
1019.1mb 64f
6:00pm 11
mph
1019.2mb 63f
5:00pm 10 11 mph 1019.3mb 64f
4:00pm 14
mph
1019.7mb 63f
3:00pm 14
mph
1019.9mb 63f
2:00pm 10 11 mph 1020.3mb 65f
1:00pm 5
mph
1020.8mb 65f
12:00pm 3 5 mph 1021.1mb 65f
11:00am 3 5 mph 1021.6mb 65f
10:00am 2 5 mph 1021.5mb 63f